IE-0041 weather

Warrens Airstrip
County Wexford, Ireland

Public forecast

Using degrees Celsius for public forecast. Weather courtesy of forecast.io.

Closest aviation weather report (METAR) to Warrens Airstrip

Report is more than 6 hours old.

Closest report is Waterford Airport, 39.7 nm (73.4 km) SW. Retrieved 2020/07/06 20:30 UTC (9 hours ago):

EIWF 062030Z 33007KT 300V360 CAVOK 14/08 Q1024

Closest aviation forecast (TAF) to Warrens Airstrip

Closest forecast is Dublin Airport, 46.9 nm (86.9 km) N. Retrieved 2020-07-07 00:09 UTC (6 hours ago):

TAF EIDW 062300Z 0700/0724 28005KT 9999 SCT025 BECMG 0700/0702 25008KT PROB30 TEMPO 0706/0711 -RA BKN014 BECMG 0707/0709 22006KT BECMG 0709/0711 15007KT TEMPO 0711/0714 4000 RA BKN012 BECMG 0714/0716 25008KT SCT007 BKN012 TEMPO 0714/0724 4000 -RADZ BKN007 PROB40 TEMPO 0717/0724 2000 BR BKN003 BECMG 0720/0722 03007KT